Detalii statie BARBIERU PROD [00001CE8]

Toti senzorii

Date Temperatura solului [C]Precipitatii [mm]Voltaj baterie [mV]Leaf Wetness [Min]HC Air temperature [C]HC Relative humidity [%]Punctul de roua [C]
medieminmaxsumaultimatimpmedieminmaxmediemediemin
2017-12-10 22:00:00 5.5 5.5 5.6 0 6844 0.53 0.12 0.84 98.15 0.2 -0.1
2017-12-10 23:00:00 5.4 5.3 5.6 0 6844 0.39 0.15 0.61 99.41 0.2 -0.1
2017-12-11 00:00:00 5.4 5.3 5.5 0 6844 0.36 0.28 0.46 94.07 -0.5 -0.9
2017-12-11 01:00:00 5.2 5 5.3 0 6844 0.3 0.17 0.53 90.19 -1.1 -1.4
2017-12-11 02:00:00 5.1 5 5.3 0 6854 0.18 0.07 0.28 87.96 -1.5 -1.9
2017-12-11 03:00:00 4.9 4.8 5.2 0 6854 0.37 0.12 0.69 85.11 -1.8 -2.2
2017-12-11 04:00:00 4.9 4.8 5.1 0 6854 0.65 0.48 0.9 80.13 -2.4 -2.7
2017-12-11 05:00:00 4.8 4.6 5 0 6854 1.18 1.03 1.41 73.43 -3 -3.3
2017-12-11 06:00:00 4.7 4.5 4.8 0 6854 1.42 1.25 1.58 70.19 -3.4 -3.7
2017-12-11 07:00:00 4.6 4.6 4.8 0 6854 1.9 1.59 2.2 64.12 -4.2 -4.7
2017-12-11 08:00:00 4.6 4.4 4.7 0 6854 2.18 1.94 2.49 59.73 -4.8 -5.4
2017-12-11 09:00:00 4.4 4.4 4.5 0 7010 2.65 2.17 3.04 57.4 -4.9 -5.4
2017-12-11 10:00:00 4.3 4.3 4.5 0.2 7080 2.87 2.52 3.17 59.36 -4.3 -5
2017-12-11 11:00:00 4.3 4.3 4.5 0.4 7158 3.52 2.54 4.14 60.87 -3.3 -3.8
2017-12-11 12:00:00 4.4 4.4 4.5 0.2 7284 5.34 4.77 6.07 60.04 -1.8 -2.3
2017-12-11 13:00:00 4.4 4.3 4.5 0.2 7264 6.2 5.78 6.52 60.51 -0.8 -1.3
2017-12-11 14:00:00 4.5 4.3 4.7 0.2 7264 6.64 6.03 7.14 60.15 -0.5 -0.8
2017-12-11 15:00:00 4.6 4.5 4.7 0 7274 6.8 6.48 7.33 58.09 -0.9 -2.1
2017-12-11 16:00:00 4.7 4.7 4.9 0 7098 6.87 6.33 7.12 51.66 -2.3 -2.7
2017-12-11 17:00:00 4.8 4.7 4.9 0.2 7000 5.82 4.87 6.55 55.04 -2.5 -2.8
2017-12-11 18:00:00 4.9 4.8 5 0 6972 4.7 3.8 5.47 59.33 -2.6 -3.9
2017-12-11 19:00:00 4.9 4.9 5 0 6952 5.49 5.15 6.06 49.95 -4.1 -4.6
2017-12-11 20:00:00 4.9 4.7 5 0.2 6942 6.39 5.91 6.95 52.94 -2.6 -4.5
2017-12-11 21:00:00 4.9 4.8 5.1 0 6932 6.29 5.88 6.55 59.31 -1 -1.3
2017-12-11 22:00:00 4.8 4.8 4.9 0 6922 6.01 5.79 6.34 60.89 -1 -1.5
2017-12-11 23:00:00 4.8 4.8 4.9 0 6914 7.09 6.73 7.41 50.35 -2.5 -3
2017-12-12 00:00:00 4.8 4.8 4.9 0 6904 7.14 7 7.46 49.02 -2.8 -3.3
2017-12-12 01:00:00 4.8 4.8 4.9 0 6884 7.3 6.86 7.7 50.42 -2.4 -2.8
2017-12-12 02:00:00 4.8 4.8 4.9 0 6874 6.2 6 6.5 56.28 -1.9 -2.2
2017-12-12 03:00:00 4.8 4.8 5 0 6874 6.32 6.09 6.81 55.84 -1.9 -2.1
2017-12-12 04:00:00 4.8 4.8 4.9 0 6874 6.33 5.86 6.96 53.45 -2.4 -2.7
2017-12-12 05:00:00 4.8 4.7 4.9 0 6864 6.67 6.41 6.92 52.59 -2.3 -2.5
2017-12-12 06:00:00 4.8 4.7 4.9 0 6864 6.72 6.6 6.99 52.75 -2.2 -2.5
2017-12-12 07:00:00 4.8 4.7 4.9 0 6864 6.84 5.82 7.46 51.75 -2.4 -3.1
2017-12-12 08:00:00 4.8 4.8 4.9 0 6864 7.18 6.14 7.74 51.99 -2.1 -3.5
2017-12-12 09:00:00 4.8 4.8 4.9 0 6952 7.88 7.46 8.21 54.68 -0.7 -0.9
2017-12-12 10:00:00 4.8 4.8 4.9 0 7166 8.76 8 9.42 53.51 -0.2 -0.5
2017-12-12 11:00:00 4.8 4.8 5 0 7274 9.92 9.57 10.26 51.71 0.3 0
2017-12-12 12:00:00 4.9 4.7 5.1 0 7274 10.03 9.86 10.26 56.06 1.4 1
2017-12-12 13:00:00 5 4.8 5.2 0 7274 10.45 10.24 10.72 56.76 2 1.8
2017-12-12 14:00:00 5.2 5.1 5.4 0 7274 10.54 10.36 10.63 57.72 2.4 2.3
2017-12-12 15:00:00 5.3 5.2 5.5 0 7274 10.8 10.59 11.1 60.01 3.2 2.6
2017-12-12 16:00:00 5.4 5.3 5.6 0 7236 11.34 10.96 11.63 60.83 3.9 3.7
2017-12-12 17:00:00 5.6 5.5 5.7 0 7040 10.47 10.14 10.74 63.34 3.6 3.4
2017-12-12 18:00:00 5.6 5.5 5.8 0 6982 10.41 10.16 10.69 65.51 4 3.9
2017-12-12 19:00:00 5.7 5.7 5.8 0 6962 10.41 9.98 10.8 65.98 4.2 4.1
2017-12-12 20:00:00 5.8 5.7 6 0 6942 10.09 9.94 10.54 67.73 4.2 4.1
2017-12-12 21:00:00 5.8 5.7 6 0 6952 9.21 8.87 9.79 70.55 3.9 3.8